Time;durP1;ratioP1;P1;durP2;ratioP2;P2;SDS_P1;SDS_P2;PMS_P1;PMS_P2;Temp;Humidity;BMP_temperature;BMP_pressure;BME280_temperature;BME280_humidity;BME280_pressure;Samples;Min_cycle;Max_cycle;Signal;HPM_P1;HPM_P2
2023/08/01 00:00:12;;;;;;;10.93;5.13;;;;;17.60;95483.00;;;;8331749;28;20201;-68
2023/08/01 00:04:16;;;;;;;7.47;4.78;;;;;17.60;95490.00;;;;8320277;28;20723;-66
2023/08/01 00:08:22;;;;;;;14.88;5.57;;;;;17.50;95487.00;;;;8344288;28;20211;-66
2023/08/01 00:12:25;;;;;;;9.32;5.20;;;;;17.50;95479.00;;;;8338397;28;20276;-65
2023/08/01 00:16:30;;;;;;;11.70;4.85;;;;;17.50;95484.00;;;;8341854;28;20227;-66
2023/08/01 00:20:36;;;;;;;11.55;4.93;;;;;17.50;95478.00;;;;8335774;28;20201;-66
2023/08/01 00:24:43;;;;;;;10.93;4.88;;;;;17.50;95471.00;;;;8328850;28;20665;-65
2023/08/01 00:28:48;;;;;;;7.15;4.68;;;;;17.50;95467.00;;;;8335749;28;20307;-65
2023/08/01 00:32:53;;;;;;;12.43;5.40;;;;;17.50;95463.00;;;;8333122;28;20200;-66
2023/08/01 00:36:57;;;;;;;9.55;5.25;;;;;17.50;95445.00;;;;8346814;28;20207;-66
2023/08/01 00:41:02;;;;;;;10.32;5.30;;;;;17.50;95436.00;;;;8342200;28;20210;-66
2023/08/01 00:45:06;;;;;;;7.93;4.68;;;;;17.50;95420.00;;;;8339990;28;20224;-65
2023/08/01 00:49:11;;;;;;;8.07;4.75;;;;;17.50;95411.00;;;;8336972;28;20196;-65
2023/08/01 00:53:16;;;;;;;10.10;4.80;;;;;17.60;95403.00;;;;8332168;28;20189;-66
2023/08/01 00:57:21;;;;;;;6.80;4.70;;;;;17.60;95397.00;;;;8341442;28;20204;-66
2023/08/01 01:01:26;;;;;;;9.70;5.28;;;;;17.50;95396.00;;;;8337390;28;20196;-67
2023/08/01 01:05:35;;;;;;;10.45;5.10;;;;;17.60;95387.00;;;;8348002;28;20236;-65
2023/08/01 01:09:43;;;;;;;10.02;5.25;;;;;17.60;95387.00;;;;8342596;28;20201;-66
2023/08/01 01:13:47;;;;;;;9.93;5.22;;;;;17.60;95380.00;;;;8338650;28;20295;-65
2023/08/01 01:17:51;;;;;;;9.10;5.35;;;;;17.50;95373.00;;;;8340905;28;20244;-67
2023/08/01 01:21:56;;;;;;;9.23;4.57;;;;;17.60;95379.00;;;;8344231;28;20261;-66
2023/08/01 01:26:21;;;;;;;12.15;6.47;;;;;17.50;95368.00;;;;8335710;28;20290;-66
2023/08/01 01:30:24;;;;;;;7.90;4.82;;;;;17.60;95378.00;;;;8336519;28;20701;-66
2023/08/01 01:34:28;;;;;;;11.73;5.25;;;;;17.60;95373.00;;;;8332934;28;20205;-67
2023/08/01 01:38:34;;;;;;;10.50;5.13;;;;;17.50;95368.00;;;;8341320;28;20200;-67
2023/08/01 01:42:37;;;;;;;9.75;5.45;;;;;17.50;95362.00;;;;8347256;28;20203;-67
2023/08/01 01:46:41;;;;;;;10.88;5.50;;;;;17.50;95364.00;;;;8338525;28;20346;-67
2023/08/01 01:50:49;;;;;;;8.20;5.18;;;;;17.50;95350.00;;;;8331349;28;20296;-67
2023/08/01 01:54:57;;;;;;;13.07;5.57;;;;;17.50;95350.00;;;;8321268;28;20212;-67
2023/08/01 01:59:03;;;;;;;26.42;6.20;;;;;17.40;95346.00;;;;8338852;28;20206;-66
2023/08/01 02:03:10;;;;;;;12.93;5.80;;;;;17.40;95337.00;;;;8330784;28;20229;-67
2023/08/01 02:07:14;;;;;;;9.20;5.35;;;;;17.40;95345.00;;;;8320017;28;20232;-69
2023/08/01 02:11:18;;;;;;;12.18;5.82;;;;;17.40;95340.00;;;;8335809;28;20235;-67
2023/08/01 02:15:25;;;;;;;16.20;6.70;;;;;17.40;95337.00;;;;8326716;28;20823;-66
2023/08/01 02:19:32;;;;;;;17.27;6.25;;;;;17.40;95339.00;;;;8329927;28;20229;-66
2023/08/01 02:23:47;;;;;;;11.15;5.60;;;;;17.40;95325.00;;;;8338799;28;20227;-67
2023/08/01 02:27:55;;;;;;;13.65;6.63;;;;;17.40;95303.00;;;;8340340;28;20230;-67
2023/08/01 02:32:01;;;;;;;12.60;6.13;;;;;17.40;95301.00;;;;8334284;28;20631;-67
2023/08/01 02:36:05;;;;;;;13.68;6.45;;;;;17.50;95311.00;;;;8329573;28;20201;-67
2023/08/01 02:40:14;;;;;;;13.90;6.40;;;;;17.40;95316.00;;;;8338235;28;20197;-66
2023/08/01 02:44:20;;;;;;;14.70;7.00;;;;;17.50;95310.00;;;;8316773;28;20207;-68
2023/08/01 02:48:23;;;;;;;14.05;6.93;;;;;17.40;95300.00;;;;8338487;28;20247;-68
2023/08/01 02:52:27;;;;;;;10.75;6.65;;;;;17.50;95293.00;;;;8330190;28;20212;-67
2023/08/01 02:56:30;;;;;;;11.60;7.10;;;;;17.50;95275.00;;;;8334714;28;20280;-69
2023/08/01 03:00:41;;;;;;;13.27;6.55;;;;;17.50;95265.00;;;;8320230;28;20197;-67
2023/08/01 03:04:49;;;;;;;12.98;6.32;;;;;17.50;95261.00;;;;8337064;22;21024;-68
2023/08/01 03:08:52;;;;;;;14.93;6.78;;;;;17.50;95250.00;;;;8320474;28;20232;-67
2023/08/01 03:12:58;;;;;;;14.13;7.28;;;;;17.40;95252.00;;;;8313464;28;20198;-69
2023/08/01 03:17:03;;;;;;;17.90;6.80;;;;;17.40;95259.00;;;;8319365;28;20193;-72
2023/08/01 03:21:13;;;;;;;11.20;7.13;;;;;17.40;95274.00;;;;8322512;28;20201;-66
2023/08/01 03:25:20;;;;;;;12.85;7.25;;;;;17.30;95270.00;;;;8313063;28;20746;-67
2023/08/01 03:29:24;;;;;;;19.95;7.07;;;;;17.30;95271.00;;;;8322100;28;20669;-67
2023/08/01 03:33:29;;;;;;;10.13;6.47;;;;;17.40;95268.00;;;;8316234;28;20561;-69
2023/08/01 03:37:33;;;;;;;13.32;7.22;;;;;17.40;95281.00;;;;8316418;28;20639;-68
2023/08/01 03:41:37;;;;;;;16.15;7.30;;;;;17.30;95280.00;;;;8316960;28;20715;-68
2023/08/01 03:45:41;;;;;;;19.30;7.75;;;;;17.30;95277.00;;;;8314079;28;20334;-72
2023/08/01 03:49:45;;;;;;;23.92;7.53;;;;;17.30;95293.00;;;;8318966;28;20623;-71
2023/08/01 03:53:51;;;;;;;19.75;7.75;;;;;17.30;95285.00;;;;8310021;28;20293;-71
2023/08/01 03:58:14;;;;;;;12.77;7.75;;;;;17.20;95290.00;;;;8318088;28;20285;-73
2023/08/01 04:02:18;;;;;;;20.70;7.72;;;;;17.20;95283.00;;;;8307432;28;20229;-74
2023/08/01 04:06:23;;;;;;;14.38;7.75;;;;;17.20;95276.00;;;;8307929;28;20229;-74
2023/08/01 04:10:29;;;;;;;21.70;7.38;;;;;17.20;95261.00;;;;8314339;28;20287;-73
2023/08/01 04:14:34;;;;;;;16.33;7.38;;;;;17.20;95255.00;;;;8310156;28;20230;-72
2023/08/01 04:18:41;;;;;;;18.23;7.88;;;;;17.20;95241.00;;;;8307157;28;20198;-72
2023/08/01 04:22:45;;;;;;;15.18;7.13;;;;;17.10;95238.00;;;;8312022;28;20213;-72
2023/08/01 04:26:49;;;;;;;14.68;7.85;;;;;17.10;95230.00;;;;8294937;28;20586;-69
2023/08/01 04:30:57;;;;;;;14.70;7.13;;;;;17.10;95226.00;;;;8291412;28;20280;-71
2023/08/01 04:35:00;;;;;;;11.18;6.85;;;;;17.00;95213.00;;;;8311636;28;20516;-73
2023/08/01 04:39:05;;;;;;;11.32;7.10;;;;;17.00;95208.00;;;;8308720;28;20232;-73
2023/08/01 04:43:09;;;;;;;13.07;6.68;;;;;17.00;95202.00;;;;8312472;28;20304;-72
2023/08/01 04:47:14;;;;;;;14.77;7.78;;;;;17.10;95204.00;;;;8309866;28;20915;-73
2023/08/01 04:51:20;;;;;;;14.57;7.30;;;;;17.10;95186.00;;;;8299448;28;20205;-76
2023/08/01 04:55:25;;;;;;;12.25;6.22;;;;;17.00;95176.00;;;;8313831;28;20546;-74
2023/08/01 04:59:28;;;;;;;8.65;5.85;;;;;17.00;95161.00;;;;8316442;28;20316;-71
2023/08/01 05:03:31;;;;;;;16.90;6.25;;;;;17.00;95156.00;;;;8307337;28;20764;-71
2023/08/01 05:07:37;;;;;;;10.02;5.75;;;;;17.00;95167.00;;;;8311328;28;20291;-71
2023/08/01 05:11:43;;;;;;;14.68;6.30;;;;;17.00;95156.00;;;;8315053;28;20292;-71
2023/08/01 05:15:48;;;;;;;7.75;4.93;;;;;17.00;95161.00;;;;8317512;28;20252;-73
2023/08/01 05:19:51;;;;;;;12.43;6.32;;;;;17.10;95159.00;;;;8310527;28;20216;-72
2023/08/01 05:23:54;;;;;;;15.82;6.13;;;;;17.00;95163.00;;;;8307625;28;20197;-71
2023/08/01 05:28:01;;;;;;;11.43;5.70;;;;;17.00;95156.00;;;;8308983;28;20236;-73
2023/08/01 05:32:05;;;;;;;8.82;5.55;;;;;17.00;95160.00;;;;8313670;28;20816;-72
2023/08/01 05:36:08;;;;;;;9.05;5.97;;;;;17.00;95154.00;;;;8311383;28;20205;-73
2023/08/01 05:40:12;;;;;;;15.32;5.95;;;;;17.00;95155.00;;;;8313919;28;20217;-74
2023/08/01 05:44:18;;;;;;;7.28;5.35;;;;;17.00;95157.00;;;;8313302;28;20216;-72
2023/08/01 05:48:22;;;;;;;13.57;6.07;;;;;17.10;95151.00;;;;8308977;28;20233;-73
2023/08/01 05:52:25;;;;;;;8.32;5.97;;;;;17.10;95157.00;;;;8314118;28;20203;-70
2023/08/01 05:56:29;;;;;;;14.35;6.43;;;;;17.10;95153.00;;;;8313542;28;20220;-70
2023/08/01 06:00:34;;;;;;;8.85;5.57;;;;;17.10;95143.00;;;;8313521;28;20201;-71
2023/08/01 06:04:38;;;;;;;10.20;5.82;;;;;17.20;95145.00;;;;8313517;28;20288;-72
2023/08/01 06:08:45;;;;;;;8.95;5.45;;;;;17.20;95125.00;;;;8307641;28;20228;-70
2023/08/01 06:12:50;;;;;;;11.57;6.10;;;;;17.30;95114.00;;;;8283166;28;20289;-71
2023/08/01 06:17:00;;;;;;;11.98;6.45;;;;;17.40;95112.00;;;;8314304;28;20921;-70
2023/08/01 06:21:05;;;;;;;10.40;5.72;;;;;17.40;95108.00;;;;8319296;28;20201;-72
2023/08/01 06:25:08;;;;;;;9.13;5.65;;;;;17.40;95098.00;;;;8308529;28;20281;-71
2023/08/01 06:29:11;;;;;;;12.60;5.88;;;;;17.40;95110.00;;;;8298494;28;20234;-73
2023/08/01 06:33:17;;;;;;;11.10;6.05;;;;;17.50;95119.00;;;;8308153;28;20545;-74
2023/08/01 06:37:25;;;;;;;9.45;5.68;;;;;17.50;95120.00;;;;8306908;28;20208;-72
2023/08/01 06:41:28;;;;;;;10.95;5.60;;;;;17.50;95120.00;;;;8316355;28;20560;-74
2023/08/01 06:45:31;;;;;;;13.30;5.70;;;;;17.50;95115.00;;;;8316505;28;20868;-73
2023/08/01 06:49:36;;;;;;;12.80;5.97;;;;;17.60;95140.00;;;;8308843;28;20845;-69
2023/08/01 06:53:39;;;;;;;9.98;5.75;;;;;17.70;95147.00;;;;8314063;28;20201;-71
2023/08/01 06:57:43;;;;;;;8.27;5.40;;;;;17.70;95136.00;;;;8318127;28;20198;-74
2023/08/01 07:01:47;;;;;;;9.40;5.47;;;;;17.80;95155.00;;;;8312630;28;20332;-70
2023/08/01 07:05:52;;;;;;;9.60;5.13;;;;;17.90;95158.00;;;;8311661;28;20221;-74
2023/08/01 07:09:56;;;;;;;13.05;5.90;;;;;18.00;95170.00;;;;8311405;28;20708;-74
2023/08/01 07:13:59;;;;;;;12.65;5.90;;;;;18.10;95160.00;;;;8314196;28;20259;-71
2023/08/01 07:18:04;;;;;;;10.88;5.68;;;;;18.30;95155.00;;;;8310531;28;20202;-74
2023/08/01 07:22:09;;;;;;;6.88;4.75;;;;;18.40;95156.00;;;;8311864;28;20293;-73
2023/08/01 07:26:12;;;;;;;10.45;5.38;;;;;18.60;95165.00;;;;8319400;28;20205;-71
2023/08/01 07:30:17;;;;;;;12.48;5.65;;;;;18.70;95165.00;;;;8298749;28;20208;-72
2023/08/01 07:34:21;;;;;;;9.40;5.28;;;;;18.90;95168.00;;;;8307343;28;20557;-71
2023/08/01 07:38:26;;;;;;;10.75;5.68;;;;;19.10;95162.00;;;;8298380;28;20207;-72
2023/08/01 07:42:30;;;;;;;16.83;6.22;;;;;19.40;95154.00;;;;8314035;28;20201;-71
2023/08/01 07:46:34;;;;;;;7.22;5.60;;;;;19.50;95168.00;;;;8299331;28;20221;-73
2023/08/01 07:50:43;;;;;;;11.57;5.30;;;;;19.60;95164.00;;;;8315278;28;20205;-72
2023/08/01 07:54:48;;;;;;;10.48;5.50;;;;;19.60;95150.00;;;;8318213;28;20281;-70
2023/08/01 07:58:52;;;;;;;14.43;5.80;;;;;19.60;95157.00;;;;8318192;28;20193;-70
2023/08/01 08:02:55;;;;;;;9.70;5.45;;;;;19.40;95168.00;;;;8307702;28;20235;-73
2023/08/01 08:06:59;;;;;;;9.18;5.35;;;;;19.20;95176.00;;;;8293041;28;20314;-69
2023/08/01 08:11:04;;;;;;;9.00;5.32;;;;;19.10;95181.00;;;;8308789;28;20260;-77
2023/08/01 08:15:08;;;;;;;12.50;6.35;;;;;19.00;95193.00;;;;8304753;28;20280;-75
2023/08/01 08:19:11;;;;;;;10.52;5.80;;;;;18.80;95203.00;;;;8313875;28;20643;-73
2023/08/01 08:23:14;;;;;;;12.55;6.55;;;;;18.80;95189.00;;;;8311242;28;20209;-74
2023/08/01 08:27:23;;;;;;;11.73;6.30;;;;;18.90;95181.00;;;;8315965;28;20276;-79
2023/08/01 08:31:26;;;;;;;12.65;6.15;;;;;18.90;95184.00;;;;8308653;28;20204;-76
2023/08/01 08:35:29;;;;;;;10.40;5.78;;;;;18.90;95184.00;;;;8289283;28;20764;-75
2023/08/01 08:39:32;;;;;;;16.50;6.93;;;;;18.90;95198.00;;;;8285476;28;20205;-78
2023/08/01 08:43:39;;;;;;;9.63;5.72;;;;;18.70;95177.00;;;;8306992;28;20197;-75
2023/08/01 08:47:45;;;;;;;12.07;5.72;;;;;18.70;95186.00;;;;8313206;28;20632;-74
2023/08/01 08:51:51;;;;;;;11.65;5.97;;;;;18.70;95182.00;;;;8310722;28;20215;-75
2023/08/01 08:55:54;;;;;;;11.02;6.20;;;;;18.70;95182.00;;;;8312200;28;20212;-74
2023/08/01 09:00:00;;;;;;;12.40;5.97;;;;;18.60;95169.00;;;;8311609;28;20209;-75
2023/08/01 09:04:06;;;;;;;10.60;5.90;;;;;18.60;95155.00;;;;8303565;28;20240;-78
2023/08/01 09:08:24;;;;;;;10.25;5.65;;;;;18.50;95186.00;;;;8311351;28;20283;-75
2023/08/01 09:12:27;;;;;;;13.52;5.63;;;;;18.50;95196.00;;;;8311120;28;20202;-76
2023/08/01 09:16:33;;;;;;;11.23;6.00;;;;;18.50;95186.00;;;;8310572;28;20697;-79
2023/08/01 09:20:47;;;;;;;9.75;5.82;;;;;18.50;95198.00;;;;8307584;28;20193;-81
2023/08/01 09:24:53;;;;;;;13.27;5.57;;;;;18.40;95194.00;;;;8305869;28;20216;-76
2023/08/01 09:28:59;;;;;;;8.43;5.88;;;;;18.40;95190.00;;;;8310965;28;20676;-78
2023/08/01 09:33:04;;;;;;;13.90;6.32;;;;;18.50;95181.00;;;;8308511;28;20201;-78
2023/08/01 09:37:07;;;;;;;17.30;6.65;;;;;18.60;95156.00;;;;8308484;28;20282;-80
2023/08/01 09:41:19;;;;;;;13.73;6.85;;;;;18.70;95131.00;;;;8312386;28;20241;-74
2023/08/01 09:45:22;;;;;;;11.25;6.25;;;;;18.90;95135.00;;;;8309508;28;20684;-79
2023/08/01 09:49:28;;;;;;;13.82;6.45;;;;;18.90;95148.00;;;;8311069;28;20256;-82
2023/08/01 09:53:33;;;;;;;12.43;5.85;;;;;18.80;95157.00;;;;8311059;28;20208;-80
2023/08/01 09:57:41;;;;;;;11.65;6.18;;;;;18.70;95139.00;;;;8314458;28;20236;-85
2023/08/01 10:01:45;;;;;;;8.88;5.40;;;;;18.80;95149.00;;;;8312821;28;20678;-78
2023/08/01 10:05:56;;;;;;;9.93;5.82;;;;;18.90;95141.00;;;;8313325;28;20217;-76
2023/08/01 10:10:01;;;;;;;7.85;5.53;;;;;19.00;95126.00;;;;8310521;28;20229;-76
2023/08/01 10:14:05;;;;;;;7.53;5.20;;;;;18.80;95150.00;;;;8309269;28;20209;-75
2023/08/01 10:18:09;;;;;;;9.80;5.22;;;;;18.70;95140.00;;;;8301847;28;20629;-75
2023/08/01 10:22:14;;;;;;;10.27;5.65;;;;;18.70;95141.00;;;;8305633;28;20266;-76
2023/08/01 10:26:23;;;;;;;10.95;5.60;;;;;18.70;95149.00;;;;8296139;28;20198;-75
2023/08/01 10:30:27;;;;;;;8.55;5.07;;;;;18.50;95139.00;;;;8293362;28;20748;-77
2023/08/01 10:34:30;;;;;;;9.90;5.50;;;;;18.60;95134.00;;;;8304557;28;20222;-76
2023/08/01 10:38:46;;;;;;;9.52;5.55;;;;;18.60;95131.00;;;;8312353;28;20640;-79
2023/08/01 10:42:51;;;;;;;10.32;5.40;;;;;18.70;95127.00;;;;8301285;28;20730;-76
2023/08/01 10:46:59;;;;;;;9.43;5.75;;;;;18.70;95128.00;;;;8300891;28;20241;-75
2023/08/01 10:51:03;;;;;;;8.45;5.07;;;;;18.70;95138.00;;;;8306374;28;20227;-75
2023/08/01 10:55:11;;;;;;;8.73;5.47;;;;;18.70;95121.00;;;;8296554;28;20209;-74
2023/08/01 10:59:15;;;;;;;9.10;5.45;;;;;18.70;95124.00;;;;8300810;28;20206;-74
2023/08/01 11:03:20;;;;;;;9.20;6.18;;;;;18.80;95115.00;;;;8311399;28;20312;-74
2023/08/01 11:07:25;;;;;;;10.50;5.60;;;;;19.20;95121.00;;;;8286084;28;20841;-75
2023/08/01 11:11:30;;;;;;;5.95;4.40;;;;;19.20;95113.00;;;;8302270;28;20194;-73
2023/08/01 11:15:35;;;;;;;9.98;5.90;;;;;19.20;95105.00;;;;8312800;28;20236;-73
2023/08/01 11:19:40;;;;;;;14.02;5.85;;;;;19.20;95111.00;;;;8278132;28;20267;-70
2023/08/01 11:23:43;;;;;;;9.35;5.57;;;;;19.10;95102.00;;;;8306892;28;20216;-71
2023/08/01 11:27:51;;;;;;;12.15;5.30;;;;;18.80;95101.00;;;;8316573;28;20239;-71
2023/08/01 11:32:01;;;;;;;9.50;5.05;;;;;18.60;95109.00;;;;8310367;28;20208;-73
2023/08/01 11:36:05;;;;;;;7.18;4.63;;;;;18.30;95103.00;;;;8318868;28;20201;-74
2023/08/01 11:40:10;;;;;;;8.38;4.75;;;;;18.20;95119.00;;;;8310728;28;20297;-74
2023/08/01 11:44:17;;;;;;;9.98;5.28;;;;;18.20;95105.00;;;;8293008;28;20210;-72
2023/08/01 11:48:23;;;;;;;11.23;4.93;;;;;18.20;95112.00;;;;8314213;28;20279;-75
2023/08/01 11:52:27;;;;;;;8.60;5.60;;;;;18.40;95112.00;;;;8313229;28;20193;-75
2023/08/01 11:56:31;;;;;;;8.60;4.63;;;;;18.70;95114.00;;;;8311357;28;20190;-75
2023/08/01 12:00:36;;;;;;;8.25;5.20;;;;;19.10;95119.00;;;;8312703;28;20667;-74
2023/08/01 12:04:40;;;;;;;5.95;4.63;;;;;19.50;95117.00;;;;8308481;28;20233;-76
2023/08/01 12:08:46;;;;;;;6.25;3.92;;;;;19.40;95120.00;;;;8314456;28;20231;-76
2023/08/01 12:12:51;;;;;;;6.32;3.75;;;;;19.40;95130.00;;;;8312233;28;20289;-72
2023/08/01 12:16:58;;;;;;;4.65;3.47;;;;;19.60;95131.00;;;;8317376;28;20197;-69
2023/08/01 12:21:01;;;;;;;3.90;3.50;;;;;19.70;95130.00;;;;8313664;28;20260;-73
2023/08/01 12:25:05;;;;;;;5.50;3.80;;;;;19.80;95137.00;;;;8311703;28;20650;-70
2023/08/01 12:29:09;;;;;;;7.50;3.38;;;;;19.90;95125.00;;;;8315030;28;20304;-71
2023/08/01 12:33:13;;;;;;;4.93;3.38;;;;;20.10;95129.00;;;;8307262;28;20244;-74
2023/08/01 12:37:17;;;;;;;5.63;3.70;;;;;20.30;95125.00;;;;8292995;28;20225;-70
2023/08/01 12:41:21;;;;;;;3.50;3.20;;;;;20.30;95117.00;;;;8310238;28;20205;-71
2023/08/01 12:45:27;;;;;;;3.08;2.58;;;;;20.40;95118.00;;;;8311312;28;20589;-69
2023/08/01 12:49:35;;;;;;;3.53;2.35;;;;;20.60;95110.00;;;;8310512;28;20225;-69
2023/08/01 12:53:39;;;;;;;2.22;2.03;;;;;21.20;95131.00;;;;8312541;28;20220;-71
2023/08/01 12:57:47;;;;;;;2.53;2.20;;;;;21.60;95125.00;;;;8313813;28;20205;-68
2023/08/01 13:01:52;;;;;;;2.65;2.45;;;;;21.80;95130.00;;;;8313225;28;20272;-67
2023/08/01 13:05:57;;;;;;;2.88;2.58;;;;;21.70;95133.00;;;;8310009;28;20202;-67
2023/08/01 13:10:00;;;;;;;2.53;2.30;;;;;21.90;95134.00;;;;8310619;28;20956;-68
2023/08/01 13:14:04;;;;;;;4.53;2.40;;;;;22.30;95129.00;;;;8311618;28;20243;-66
2023/08/01 13:18:07;;;;;;;4.90;2.45;;;;;22.30;95125.00;;;;8311291;28;20689;-66
2023/08/01 13:22:15;;;;;;;2.42;2.22;;;;;22.30;95134.00;;;;8309712;28;20813;-66
2023/08/01 13:26:18;;;;;;;3.25;2.22;;;;;22.40;95145.00;;;;8301510;28;20640;-67
2023/08/01 13:30:21;;;;;;;2.10;2.00;;;;;22.70;95150.00;;;;8311866;28;20229;-66
2023/08/01 13:34:25;;;;;;;3.03;2.17;;;;;22.60;95132.00;;;;8303668;28;20305;-67
2023/08/01 13:38:31;;;;;;;2.78;2.42;;;;;22.70;95124.00;;;;8284779;28;20198;-68
2023/08/01 13:42:38;;;;;;;2.40;2.20;;;;;23.60;95116.00;;;;8312184;28;20714;-66
2023/08/01 13:46:41;;;;;;;3.30;2.25;;;;;24.30;95129.00;;;;8310958;28;20288;-67
2023/08/01 13:50:44;;;;;;;4.07;2.42;;;;;24.60;95144.00;;;;8286505;28;20232;-67
2023/08/01 13:54:49;;;;;;;2.42;2.22;;;;;24.40;95136.00;;;;8312988;28;20198;-68
2023/08/01 13:58:55;;;;;;;3.42;2.60;;;;;24.20;95132.00;;;;8310193;28;20232;-67
2023/08/01 14:03:00;;;;;;;2.70;2.20;;;;;24.30;95118.00;;;;8308350;28;20229;-67
2023/08/01 14:07:04;;;;;;;4.70;2.35;;;;;24.90;95113.00;;;;8313991;28;20194;-67
2023/08/01 14:11:12;;;;;;;2.30;2.10;;;;;24.90;95131.00;;;;8308146;28;20248;-67
2023/08/01 14:15:16;;;;;;;2.50;2.20;;;;;24.50;95136.00;;;;8311676;28;20574;-67
2023/08/01 14:19:22;;;;;;;2.25;2.05;;;;;24.00;95131.00;;;;8282609;28;20211;-68
2023/08/01 14:23:25;;;;;;;2.28;2.05;;;;;23.40;95129.00;;;;8302408;28;20233;-68
2023/08/01 14:27:30;;;;;;;5.47;2.63;;;;;22.50;95184.00;;;;8301990;28;20206;-74
2023/08/01 14:31:34;;;;;;;6.07;1.67;;;;;20.80;95163.00;;;;8308097;28;20229;-73
2023/08/01 14:35:38;;;;;;;2.70;1.55;;;;;19.50;95155.00;;;;8301215;28;20245;-72
2023/08/01 14:39:44;;;;;;;2.22;1.75;;;;;18.80;95170.00;;;;8285573;28;20205;-74
2023/08/01 14:43:49;;;;;;;2.80;1.50;;;;;19.20;95167.00;;;;8307623;28;20201;-75
2023/08/01 14:47:52;;;;;;;3.17;1.60;;;;;19.80;95167.00;;;;8310042;28;20661;-75
2023/08/01 14:51:57;;;;;;;2.17;1.77;;;;;20.40;95168.00;;;;8304116;28;20235;-75
2023/08/01 14:56:07;;;;;;;1.65;1.55;;;;;21.10;95174.00;;;;8304973;28;20194;-74
2023/08/01 15:00:16;;;;;;;1.50;1.40;;;;;21.20;95167.00;;;;8303768;28;20201;-75
2023/08/01 15:04:19;;;;;;;1.40;1.38;;;;;21.50;95169.00;;;;8304197;28;20264;-75
2023/08/01 15:08:23;;;;;;;1.52;1.42;;;;;21.80;95178.00;;;;8312521;28;20964;-72
2023/08/01 15:12:29;;;;;;;1.30;1.20;;;;;22.10;95183.00;;;;8308604;28;20224;-72
2023/08/01 15:16:39;;;;;;;1.55;1.45;;;;;22.30;95186.00;;;;8299076;28;20294;-71
2023/08/01 15:20:45;;;;;;;1.42;1.42;;;;;22.60;95198.00;;;;8311163;28;20204;-72
2023/08/01 15:24:49;;;;;;;4.35;1.40;;;;;22.60;95191.00;;;;8315122;28;20201;-71
2023/08/01 15:28:56;;;;;;;1.17;1.17;;;;;22.70;95190.00;;;;8309442;28;20194;-71
2023/08/01 15:33:01;;;;;;;1.52;1.40;;;;;22.70;95209.00;;;;8306374;28;20759;-71
2023/08/01 15:37:09;;;;;;;1.30;1.25;;;;;22.30;95184.00;;;;8312303;28;20197;-71
2023/08/01 15:41:13;;;;;;;1.92;1.45;;;;;22.10;95193.00;;;;8316189;28;20193;-70
2023/08/01 15:45:17;;;;;;;2.72;1.67;;;;;21.80;95202.00;;;;8314434;28;20281;-71
2023/08/01 15:49:23;;;;;;;2.25;1.50;;;;;21.60;95189.00;;;;8316461;28;20198;-70
2023/08/01 15:53:26;;;;;;;2.05;1.40;;;;;21.40;95216.00;;;;8310827;28;20209;-69
2023/08/01 15:57:32;;;;;;;2.85;1.50;;;;;21.40;95219.00;;;;8306734;28;20194;-71
2023/08/01 16:01:36;;;;;;;2.47;1.80;;;;;21.40;95208.00;;;;8309612;28;20230;-71
2023/08/01 16:05:41;;;;;;;1.65;1.55;;;;;21.20;95201.00;;;;8305274;28;21119;-71
2023/08/01 16:09:45;;;;;;;2.35;1.30;;;;;21.20;95202.00;;;;8315170;28;20232;-71
2023/08/01 16:13:49;;;;;;;2.90;1.95;;;;;21.70;95204.00;;;;8315633;28;20686;-71
2023/08/01 16:17:52;;;;;;;1.77;1.67;;;;;22.80;95194.00;;;;8315003;28;20194;-71
2023/08/01 16:22:03;;;;;;;2.35;1.35;;;;;23.60;95203.00;;;;8314947;28;20225;-71
2023/08/01 16:26:08;;;;;;;1.20;1.10;;;;;24.10;95201.00;;;;8314032;28;20201;-71
2023/08/01 16:30:13;;;;;;;1.70;1.60;;;;;24.10;95193.00;;;;8314304;28;20622;-70
2023/08/01 16:34:16;;;;;;;1.35;1.25;;;;;24.30;95193.00;;;;8314983;28;20285;-71
2023/08/01 16:38:25;;;;;;;4.13;1.40;;;;;24.20;95189.00;;;;8308511;28;20249;-74
2023/08/01 16:42:32;;;;;;;1.67;1.40;;;;;24.20;95190.00;;;;8304252;28;20966;-74
2023/08/01 16:46:35;;;;;;;1.55;1.30;;;;;24.30;95196.00;;;;8298225;28;20198;-74
2023/08/01 16:50:38;;;;;;;2.72;1.50;;;;;23.70;95213.00;;;;8308724;28;20316;-74
2023/08/01 16:54:43;;;;;;;2.00;1.50;;;;;23.20;95209.00;;;;8285982;28;20244;-74
2023/08/01 16:58:47;;;;;;;3.35;1.60;;;;;22.90;95213.00;;;;8307492;28;20691;-71
2023/08/01 17:02:50;;;;;;;1.30;1.30;;;;;23.30;95219.00;;;;8296384;28;20265;-72
2023/08/01 17:07:00;;;;;;;1.30;1.30;;;;;24.20;95222.00;;;;8309917;28;20279;-72
2023/08/01 17:11:07;;;;;;;1.55;1.52;;;;;24.60;95229.00;;;;8292589;28;20221;-72
2023/08/01 17:15:13;;;;;;;1.70;1.60;;;;;24.50;95228.00;;;;8316123;28;20204;-74
2023/08/01 17:19:20;;;;;;;3.00;1.33;;;;;24.70;95227.00;;;;8308161;28;20212;-73
2023/08/01 17:23:24;;;;;;;1.67;1.58;;;;;25.20;95231.00;;;;8304986;28;20208;-75
2023/08/01 17:27:29;;;;;;;5.15;1.45;;;;;26.00;95232.00;;;;8308873;28;20662;-72
2023/08/01 17:31:37;;;;;;;1.42;1.40;;;;;26.80;95231.00;;;;8286023;28;20229;-74
2023/08/01 17:35:42;;;;;;;2.45;1.48;;;;;27.30;95230.00;;;;8305600;28;20197;-73
2023/08/01 17:39:48;;;;;;;1.40;1.40;;;;;27.60;95239.00;;;;8302300;28;20213;-73
2023/08/01 17:43:54;;;;;;;1.75;1.58;;;;;27.40;95245.00;;;;8305983;28;20283;-72
2023/08/01 17:47:58;;;;;;;1.60;1.50;;;;;27.30;95246.00;;;;8309816;28;20198;-72
2023/08/01 17:52:05;;;;;;;2.70;1.60;;;;;26.90;95258.00;;;;8306565;28;20224;-72
2023/08/01 17:56:11;;;;;;;1.63;1.52;;;;;26.70;95271.00;;;;8309417;28;20229;-72
2023/08/01 18:00:19;;;;;;;1.70;1.60;;;;;26.50;95267.00;;;;8305216;28;20197;-71
2023/08/01 18:04:22;;;;;;;1.67;1.50;;;;;25.70;95276.00;;;;8308626;28;20331;-72
2023/08/01 18:08:28;;;;;;;1.67;1.58;;;;;24.70;95280.00;;;;8310800;28;20201;-71
2023/08/01 18:12:31;;;;;;;1.92;1.83;;;;;23.80;95278.00;;;;8308266;28;20695;-72
2023/08/01 18:16:43;;;;;;;2.80;1.70;;;;;23.00;95288.00;;;;8306348;28;20289;-72
2023/08/01 18:20:59;;;;;;;1.73;1.63;;;;;22.40;95293.00;;;;8309530;28;20213;-72
2023/08/01 18:25:02;;;;;;;4.10;1.63;;;;;21.90;95293.00;;;;8309719;28;20186;-72
2023/08/01 18:29:06;;;;;;;1.75;1.65;;;;;21.40;95307.00;;;;8294637;28;20193;-72
2023/08/01 18:33:11;;;;;;;1.88;1.77;;;;;21.10;95310.00;;;;8292140;28;20688;-71
2023/08/01 18:37:15;;;;;;;3.35;1.80;;;;;20.70;95307.00;;;;8311640;28;20635;-71
2023/08/01 18:41:21;;;;;;;2.03;1.60;;;;;20.40;95312.00;;;;8296531;28;20577;-71
2023/08/01 18:45:24;;;;;;;3.88;1.90;;;;;20.20;95327.00;;;;8311840;28;20288;-71
2023/08/01 18:49:31;;;;;;;4.90;1.55;;;;;19.90;95327.00;;;;8311192;28;20203;-71
2023/08/01 18:53:37;;;;;;;1.60;1.50;;;;;19.60;95338.00;;;;8293778;28;20316;-71
2023/08/01 18:57:46;;;;;;;2.55;1.80;;;;;19.10;95340.00;;;;8303763;28;20296;-70
2023/08/01 19:01:50;;;;;;;2.30;1.70;;;;;18.70;95344.00;;;;8306689;28;20244;-71
2023/08/01 19:05:54;;;;;;;2.03;1.80;;;;;18.40;95356.00;;;;8310831;28;20264;-72
2023/08/01 19:09:58;;;;;;;1.92;1.77;;;;;18.10;95352.00;;;;8311574;28;20202;-71
2023/08/01 19:14:01;;;;;;;2.08;1.80;;;;;17.80;95359.00;;;;8304840;28;20324;-72
2023/08/01 19:18:04;;;;;;;4.05;1.95;;;;;17.70;95368.00;;;;8301863;28;20213;-72
2023/08/01 19:22:09;;;;;;;5.82;2.00;;;;;17.50;95371.00;;;;8307690;28;20209;-72
2023/08/01 19:26:13;;;;;;;3.47;1.90;;;;;17.30;95378.00;;;;8303432;28;20201;-71
2023/08/01 19:30:18;;;;;;;3.67;2.03;;;;;17.00;95382.00;;;;8302604;28;20193;-72
2023/08/01 19:34:22;;;;;;;2.60;1.80;;;;;16.80;95397.00;;;;8304761;28;20633;-72
2023/08/01 19:38:27;;;;;;;5.30;1.80;;;;;16.60;95393.00;;;;8305364;28;20281;-71
2023/08/01 19:42:30;;;;;;;3.03;2.10;;;;;16.50;95390.00;;;;8301816;28;20211;-71
2023/08/01 19:46:33;;;;;;;2.85;2.10;;;;;16.30;95398.00;;;;8301977;28;20205;-71
2023/08/01 19:50:39;;;;;;;3.63;2.10;;;;;16.20;95402.00;;;;8308812;28;20201;-70
2023/08/01 19:54:44;;;;;;;3.47;2.05;;;;;16.10;95397.00;;;;8308659;28;20292;-70
2023/08/01 19:58:48;;;;;;;2.90;2.60;;;;;15.90;95407.00;;;;8309167;28;20200;-70
2023/08/01 20:02:51;;;;;;;4.18;2.42;;;;;15.90;95436.00;;;;8308750;28;20229;-71
2023/08/01 20:06:54;;;;;;;6.10;2.13;;;;;16.20;95463.00;;;;8315648;28;20237;-71
2023/08/01 20:11:00;;;;;;;2.90;1.80;;;;;16.50;95452.00;;;;8312080;28;20206;-70
2023/08/01 20:15:06;;;;;;;3.72;1.65;;;;;16.70;95468.00;;;;8301574;28;20529;-72
2023/08/01 20:19:09;;;;;;;4.97;2.35;;;;;16.80;95473.00;;;;8307122;28;20197;-71